F/V Renaissance II — FMEW — position and weather

sailwx.info

Track history (hours):
 
Tides and Currents Weather Stations Pressure Air Temp Water Temp Dewpoint Dewpoint Depression Visibility Wind Speed Wind Dir Waves Ship Positions

F/V Renaissance II

Last reported at 2016-May-31 18:33 UTC. Time now 2016-Jun-01 07:29 UTC.
Position N 46°26' W 001°51'.

Length 18 m.

Type: Fishing. MMSI: 228216600.

Date/timePositionNaut miles runAvg speedWind from/ knotsBaromVisibWave heightAir tempDewpointWater temp
2016-May-31 18:33N 46°26' W 001°51'9 8.7
2016-May-31 17:33N 46°20' W 002°01'13 0.3
2016-May-30 01:16N 46°11' W 001°47'710.0
2016-May-30 00:33N 46°18' W 001°47'10 9.7
2016-May-29 23:33N 46°28' W 001°47'2 2.1
2016-May-29 22:33N 46°30' W 001°47'3 3.1
2016-May-29 21:33N 46°27' W 001°50'11 9.4
2016-May-29 20:25N 46°21' W 002°02'12 0.6
2016-May-29 00:04N 46°15' W 002°18'0 0.2
2016-May-28 23:16N 46°15' W 002°18'0 0.1
2016-May-28 22:33N 46°15' W 002°18'85 3.1
2016-May-27 19:05N 44°57' W 001°33'3 4.4
2016-May-27 18:30N 44°55' W 001°37'2 1.7
2016-May-27 17:33N 44°57' W 001°35'2 1.8
2016-May-27 16:33N 44°55' W 001°36'1 0.8
2016-May-27 15:03N 44°55' W 001°34'1 2.6
2016-May-27 14:33N 44°54' W 001°36'1 1.0
2016-May-27 13:33N 44°55' W 001°35'0 0.1
2016-May-27 11:33N 44°55' W 001°35'1 0.3
2016-May-27 09:19N 44°55' W 001°36'1 0.6
2016-May-27 08:21N 44°55' W 001°35'36 6.3
2016-May-27 02:33N 45°31' W 001°42'9 9.0
2016-May-27 01:33N 45°40' W 001°42'10 9.2
2016-May-27 00:31N 45°50' W 001°43'10 9.6
2016-May-26 23:29N 45°60' W 001°44'9 9.7
2016-May-26 22:33N 46°09' W 001°45'1010.0
2016-May-26 21:33N 46°18' W 001°46'10 9.7
2016-May-26 20:33N 46°28' W 001°47'2 1.7
2016-May-26 19:33N 46°30' W 001°47'0 0.2
2016-May-26 18:33N 46°30' W 001°48'9 8.9
2016-May-26 17:33N 46°21' W 001°52'11 9.6
2016-May-26 16:25N 46°12' W 001°60'15 1.9
2016-May-26 08:20N 45°58' W 002°10'15 2.2
2016-May-26 01:33N 46°12' W 002°00'5 4.6
2016-May-26 00:33N 46°16' W 001°57'5 5.0
2016-May-25 23:33N 46°20' W 001°53'5 5.3
2016-May-25 22:33N 46°25' W 001°50'5 5.4
2016-May-25 21:33N 46°30' W 001°48'0 0.2
2016-May-25 20:33N 46°30' W 001°48'9 9.0
2016-May-25 19:33N 46°21' W 001°53'10 9.4
2016-May-25 18:30N 46°13' W 001°60'9 9.4
2016-May-25 17:33N 46°05' W 002°06'6 5.7
2016-May-25 16:33N 45°60' W 002°10'16 0.4
2016-May-23 22:33N 46°09' W 001°52'9 9.2
2016-May-23 21:33N 46°18' W 001°50'9 9.4
2016-May-23 20:33N 46°27' W 001°48'2 2.5
2016-May-23 19:33N 46°30' W 001°48'0 0.0
2016-May-23 18:33N 46°30' W 001°48'4 3.7
2016-May-23 17:33N 46°27' W 001°51'6 6.4
2016-May-23 16:33N 46°24' W 001°60'6 6.3
2016-May-23 15:33N 46°22' W 002°08'4 0.3
2016-May-23 04:07N 46°19' W 002°11'5 8.8
2016-May-23 03:33N 46°22' W 002°05'9 8.6
2016-May-23 02:33N 46°26' W 001°54'6 6.2
2016-May-23 01:33N 46°30' W 001°47'0 0.0
2016-May-23 00:33N 46°30' W 001°47'0 0.0
2016-May-22 23:33N 46°30' W 001°47'0 0.0
2016-May-22 22:33N 46°30' W 001°47'0 0.0
2016-May-22 21:33N 46°30' W 001°47'0 0.0
2016-May-22 20:33N 46°30' W 001°47'0 0.0
2016-May-22 19:33N 46°30' W 001°47'0 0.0
2016-May-22 18:33N 46°30' W 001°47'0 0.0
2016-May-22 17:33N 46°30' W 001°47'0 0.0
2016-May-22 16:33N 46°30' W 001°47'0 0.0
2016-May-22 15:33N 46°30' W 001°47'0 0.1
2016-May-22 14:33N 46°30' W 001°47'6 6.2
2016-May-22 13:33N 46°24' W 001°49'9 8.9
2016-May-22 12:33N 46°16' W 001°56'18 1.6
2016-May-22 01:07N 45°58' W 001°54'1 1.0
2016-May-22 00:24N 45°57' W 001°54'1 0.9
2016-May-21 23:33N 45°57' W 001°55'1 0.7
2016-May-21 22:33N 45°56' W 001°56'0 0.3
2016-May-21 21:23N 45°56' W 001°56'0 0.2
2016-May-21 20:33N 45°56' W 001°55'6 6.0
2016-May-21 19:33N 45°57' W 002°04'  
Track history (hours):
 
Tides and Currents Weather Stations Pressure Air Temp Water Temp Dewpoint Dewpoint Depression Visibility Wind Speed Wind Dir Waves Ship Positions

F/V Renaissance II

Last reported at 2016-May-31 18:33 UTC. Time now 2016-Jun-01 07:29 UTC.
Position N 46°26' W 001°51'.

Length 18 m.

Type: Fishing. MMSI: 228216600.

Date/timePositionNaut miles runAvg speedWind from/ knotsBaromVisibWave heightAir tempDewpointWater temp
2016-May-31 18:33N 46°26' W 001°51'9 8.7
2016-May-31 17:33N 46°20' W 002°01'13 0.3
2016-May-30 01:16N 46°11' W 001°47'710.0
2016-May-30 00:33N 46°18' W 001°47'10 9.7
2016-May-29 23:33N 46°28' W 001°47'2 2.1
2016-May-29 22:33N 46°30' W 001°47'3 3.1
2016-May-29 21:33N 46°27' W 001°50'11 9.4
2016-May-29 20:25N 46°21' W 002°02'12 0.6
2016-May-29 00:04N 46°15' W 002°18'0 0.2
2016-May-28 23:16N 46°15' W 002°18'0 0.1
2016-May-28 22:33N 46°15' W 002°18'85 3.1
2016-May-27 19:05N 44°57' W 001°33'3 4.4
2016-May-27 18:30N 44°55' W 001°37'2 1.7
2016-May-27 17:33N 44°57' W 001°35'2 1.8
2016-May-27 16:33N 44°55' W 001°36'1 0.8
2016-May-27 15:03N 44°55' W 001°34'1 2.6
2016-May-27 14:33N 44°54' W 001°36'1 1.0
2016-May-27 13:33N 44°55' W 001°35'0 0.1
2016-May-27 11:33N 44°55' W 001°35'1 0.3
2016-May-27 09:19N 44°55' W 001°36'1 0.6
2016-May-27 08:21N 44°55' W 001°35'36 6.3
2016-May-27 02:33N 45°31' W 001°42'9 9.0
2016-May-27 01:33N 45°40' W 001°42'10 9.2
2016-May-27 00:31N 45°50' W 001°43'10 9.6
2016-May-26 23:29N 45°60' W 001°44'9 9.7
2016-May-26 22:33N 46°09' W 001°45'1010.0
2016-May-26 21:33N 46°18' W 001°46'10 9.7
2016-May-26 20:33N 46°28' W 001°47'2 1.7
2016-May-26 19:33N 46°30' W 001°47'0 0.2
2016-May-26 18:33N 46°30' W 001°48'9 8.9
2016-May-26 17:33N 46°21' W 001°52'11 9.6
2016-May-26 16:25N 46°12' W 001°60'15 1.9
2016-May-26 08:20N 45°58' W 002°10'15 2.2
2016-May-26 01:33N 46°12' W 002°00'5 4.6
2016-May-26 00:33N 46°16' W 001°57'5 5.0
2016-May-25 23:33N 46°20' W 001°53'5 5.3
2016-May-25 22:33N 46°25' W 001°50'5 5.4
2016-May-25 21:33N 46°30' W 001°48'0 0.2
2016-May-25 20:33N 46°30' W 001°48'9 9.0
2016-May-25 19:33N 46°21' W 001°53'10 9.4
2016-May-25 18:30N 46°13' W 001°60'9 9.4
2016-May-25 17:33N 46°05' W 002°06'6 5.7
2016-May-25 16:33N 45°60' W 002°10'16 0.4
2016-May-23 22:33N 46°09' W 001°52'9 9.2
2016-May-23 21:33N 46°18' W 001°50'9 9.4
2016-May-23 20:33N 46°27' W 001°48'2 2.5
2016-May-23 19:33N 46°30' W 001°48'0 0.0
2016-May-23 18:33N 46°30' W 001°48'4 3.7
2016-May-23 17:33N 46°27' W 001°51'6 6.4
2016-May-23 16:33N 46°24' W 001°60'6 6.3
2016-May-23 15:33N 46°22' W 002°08'4 0.3
2016-May-23 04:07N 46°19' W 002°11'5 8.8
2016-May-23 03:33N 46°22' W 002°05'9 8.6
2016-May-23 02:33N 46°26' W 001°54'6 6.2
2016-May-23 01:33N 46°30' W 001°47'0 0.0
2016-May-23 00:33N 46°30' W 001°47'0 0.0
2016-May-22 23:33N 46°30' W 001°47'0 0.0
2016-May-22 22:33N 46°30' W 001°47'0 0.0
2016-May-22 21:33N 46°30' W 001°47'0 0.0
2016-May-22 20:33N 46°30' W 001°47'0 0.0
2016-May-22 19:33N 46°30' W 001°47'0 0.0
2016-May-22 18:33N 46°30' W 001°47'0 0.0
2016-May-22 17:33N 46°30' W 001°47'0 0.0
2016-May-22 16:33N 46°30' W 001°47'0 0.0
2016-May-22 15:33N 46°30' W 001°47'0 0.1
2016-May-22 14:33N 46°30' W 001°47'6 6.2
2016-May-22 13:33N 46°24' W 001°49'9 8.9
2016-May-22 12:33N 46°16' W 001°56'18 1.6
2016-May-22 01:07N 45°58' W 001°54'1 1.0
2016-May-22 00:24N 45°57' W 001°54'1 0.9
2016-May-21 23:33N 45°57' W 001°55'1 0.7
2016-May-21 22:33N 45°56' W 001°56'0 0.3
2016-May-21 21:23N 45°56' W 001°56'0 0.2
2016-May-21 20:33N 45°56' W 001°55'6 6.0
2016-May-21 19:33N 45°57' W 002°04'  

Dump ship's entire track history